sensor_id;sensor_type;location;lat;lon;timestamp;P1;durP1;ratioP1;P2;durP2;ratioP2
7306;SDS011;3694;48.732;9.248;2023-04-06T00:00:29;14.43;;;12.93;;
7306;SDS011;3694;48.732;9.248;2023-04-06T00:02:55;15.80;;;13.67;;
7306;SDS011;3694;48.732;9.248;2023-04-06T00:05:21;14.57;;;12.93;;
7306;SDS011;3694;48.732;9.248;2023-04-06T00:07:47;14.93;;;13.33;;
7306;SDS011;3694;48.732;9.248;2023-04-06T00:10:13;14.90;;;13.33;;
7306;SDS011;3694;48.732;9.248;2023-04-06T00:12:39;13.83;;;12.43;;
7306;SDS011;3694;48.732;9.248;2023-04-06T00:15:04;16.87;;;13.30;;
7306;SDS011;3694;48.732;9.248;2023-04-06T00:17:31;15.13;;;13.53;;
7306;SDS011;3694;48.732;9.248;2023-04-06T00:19:56;15.30;;;12.80;;
7306;SDS011;3694;48.732;9.248;2023-04-06T00:22:22;14.07;;;12.63;;
7306;SDS011;3694;48.732;9.248;2023-04-06T00:24:47;13.23;;;11.83;;
7306;SDS011;3694;48.732;9.248;2023-04-06T00:27:13;14.43;;;12.30;;
7306;SDS011;3694;48.732;9.248;2023-04-06T00:29:39;14.70;;;12.37;;
7306;SDS011;3694;48.732;9.248;2023-04-06T00:32:05;13.27;;;11.97;;
7306;SDS011;3694;48.732;9.248;2023-04-06T00:34:30;13.40;;;12.00;;
7306;SDS011;3694;48.732;9.248;2023-04-06T00:36:56;15.70;;;12.87;;
7306;SDS011;3694;48.732;9.248;2023-04-06T00:39:22;13.87;;;12.37;;
7306;SDS011;3694;48.732;9.248;2023-04-06T00:41:49;13.87;;;11.93;;
7306;SDS011;3694;48.732;9.248;2023-04-06T00:44:16;14.30;;;12.87;;
7306;SDS011;3694;48.732;9.248;2023-04-06T00:46:42;16.87;;;12.20;;
7306;SDS011;3694;48.732;9.248;2023-04-06T00:49:07;13.63;;;12.00;;
7306;SDS011;3694;48.732;9.248;2023-04-06T00:51:33;16.30;;;13.00;;
7306;SDS011;3694;48.732;9.248;2023-04-06T00:53:59;14.83;;;13.23;;
7306;SDS011;3694;48.732;9.248;2023-04-06T00:56:24;13.67;;;12.23;;
7306;SDS011;3694;48.732;9.248;2023-04-06T00:58:51;16.07;;;12.23;;
7306;SDS011;3694;48.732;9.248;2023-04-06T01:01:16;14.00;;;12.50;;
7306;SDS011;3694;48.732;9.248;2023-04-06T01:03:42;15.93;;;13.17;;
7306;SDS011;3694;48.732;9.248;2023-04-06T01:06:09;18.83;;;14.00;;
7306;SDS011;3694;48.732;9.248;2023-04-06T01:08:35;15.43;;;13.83;;
7306;SDS011;3694;48.732;9.248;2023-04-06T01:11:01;14.83;;;12.30;;
7306;SDS011;3694;48.732;9.248;2023-04-06T01:13:26;14.73;;;13.17;;
7306;SDS011;3694;48.732;9.248;2023-04-06T01:15:52;14.37;;;12.47;;
7306;SDS011;3694;48.732;9.248;2023-04-06T01:18:18;14.67;;;12.50;;
7306;SDS011;3694;48.732;9.248;2023-04-06T01:20:50;14.97;;;13.10;;
7306;SDS011;3694;48.732;9.248;2023-04-06T01:23:16;14.00;;;12.40;;
7306;SDS011;3694;48.732;9.248;2023-04-06T01:25:41;16.47;;;13.00;;
7306;SDS011;3694;48.732;9.248;2023-04-06T01:28:07;13.67;;;12.03;;
7306;SDS011;3694;48.732;9.248;2023-04-06T01:30:32;15.33;;;12.53;;
7306;SDS011;3694;48.732;9.248;2023-04-06T01:32:58;14.83;;;12.83;;
7306;SDS011;3694;48.732;9.248;2023-04-06T01:35:23;14.03;;;12.53;;
7306;SDS011;3694;48.732;9.248;2023-04-06T01:37:52;14.03;;;12.10;;
7306;SDS011;3694;48.732;9.248;2023-04-06T01:40:18;13.70;;;12.27;;
7306;SDS011;3694;48.732;9.248;2023-04-06T01:42:43;13.40;;;11.97;;
7306;SDS011;3694;48.732;9.248;2023-04-06T01:45:09;15.70;;;12.47;;
7306;SDS011;3694;48.732;9.248;2023-04-06T01:47:35;14.47;;;12.93;;
7306;SDS011;3694;48.732;9.248;2023-04-06T01:50:00;16.40;;;13.40;;
7306;SDS011;3694;48.732;9.248;2023-04-06T01:52:27;14.73;;;13.00;;
7306;SDS011;3694;48.732;9.248;2023-04-06T01:54:53;15.07;;;13.27;;
7306;SDS011;3694;48.732;9.248;2023-04-06T01:57:19;14.70;;;13.10;;
7306;SDS011;3694;48.732;9.248;2023-04-06T01:59:45;14.83;;;13.23;;
7306;SDS011;3694;48.732;9.248;2023-04-06T02:02:10;14.53;;;12.47;;
7306;SDS011;3694;48.732;9.248;2023-04-06T02:04:37;15.87;;;13.13;;
7306;SDS011;3694;48.732;9.248;2023-04-06T02:07:03;15.70;;;13.57;;
7306;SDS011;3694;48.732;9.248;2023-04-06T02:09:29;16.50;;;13.57;;
7306;SDS011;3694;48.732;9.248;2023-04-06T02:11:54;15.13;;;13.53;;
7306;SDS011;3694;48.732;9.248;2023-04-06T02:14:20;15.40;;;13.80;;
7306;SDS011;3694;48.732;9.248;2023-04-06T02:16:46;15.27;;;13.57;;
7306;SDS011;3694;48.732;9.248;2023-04-06T02:19:11;15.53;;;13.93;;
7306;SDS011;3694;48.732;9.248;2023-04-06T02:21:37;16.07;;;13.80;;
7306;SDS011;3694;48.732;9.248;2023-04-06T02:24:02;16.10;;;13.97;;
7306;SDS011;3694;48.732;9.248;2023-04-06T02:26:28;18.13;;;14.00;;
7306;SDS011;3694;48.732;9.248;2023-04-06T02:28:54;14.77;;;12.63;;
7306;SDS011;3694;48.732;9.248;2023-04-06T02:31:20;15.17;;;13.57;;
7306;SDS011;3694;48.732;9.248;2023-04-06T02:33:45;15.80;;;13.33;;
7306;SDS011;3694;48.732;9.248;2023-04-06T02:36:11;14.63;;;13.07;;
7306;SDS011;3694;48.732;9.248;2023-04-06T02:38:36;14.50;;;13.00;;
7306;SDS011;3694;48.732;9.248;2023-04-06T02:41:02;14.67;;;13.17;;
7306;SDS011;3694;48.732;9.248;2023-04-06T02:43:27;17.50;;;13.47;;
7306;SDS011;3694;48.732;9.248;2023-04-06T02:45:53;15.53;;;13.93;;
7306;SDS011;3694;48.732;9.248;2023-04-06T02:48:18;14.83;;;13.13;;
7306;SDS011;3694;48.732;9.248;2023-04-06T02:50:44;15.33;;;13.10;;
7306;SDS011;3694;48.732;9.248;2023-04-06T02:53:09;14.73;;;13.20;;
7306;SDS011;3694;48.732;9.248;2023-04-06T02:55:35;17.00;;;13.57;;
7306;SDS011;3694;48.732;9.248;2023-04-06T02:58:00;16.87;;;14.63;;
7306;SDS011;3694;48.732;9.248;2023-04-06T03:00:26;16.57;;;14.30;;
7306;SDS011;3694;48.732;9.248;2023-04-06T03:02:51;18.13;;;14.30;;
7306;SDS011;3694;48.732;9.248;2023-04-06T03:05:17;16.97;;;13.50;;
7306;SDS011;3694;48.732;9.248;2023-04-06T03:07:42;14.73;;;13.23;;
7306;SDS011;3694;48.732;9.248;2023-04-06T03:10:08;16.20;;;13.40;;
7306;SDS011;3694;48.732;9.248;2023-04-06T03:12:34;17.90;;;13.63;;
7306;SDS011;3694;48.732;9.248;2023-04-06T03:15:00;15.03;;;13.23;;
7306;SDS011;3694;48.732;9.248;2023-04-06T03:17:25;17.47;;;14.03;;
7306;SDS011;3694;48.732;9.248;2023-04-06T03:19:51;16.13;;;12.90;;
7306;SDS011;3694;48.732;9.248;2023-04-06T03:22:16;16.30;;;13.87;;
7306;SDS011;3694;48.732;9.248;2023-04-06T03:24:42;15.50;;;13.77;;
7306;SDS011;3694;48.732;9.248;2023-04-06T03:27:07;15.90;;;14.10;;
7306;SDS011;3694;48.732;9.248;2023-04-06T03:29:33;17.27;;;14.30;;
7306;SDS011;3694;48.732;9.248;2023-04-06T03:31:58;15.80;;;13.70;;
7306;SDS011;3694;48.732;9.248;2023-04-06T03:34:24;16.67;;;14.47;;
7306;SDS011;3694;48.732;9.248;2023-04-06T03:36:50;17.37;;;15.03;;
7306;SDS011;3694;48.732;9.248;2023-04-06T03:39:15;16.20;;;14.47;;
7306;SDS011;3694;48.732;9.248;2023-04-06T03:41:41;21.73;;;15.23;;
7306;SDS011;3694;48.732;9.248;2023-04-06T03:44:06;16.70;;;14.90;;
7306;SDS011;3694;48.732;9.248;2023-04-06T03:46:32;15.87;;;14.17;;
7306;SDS011;3694;48.732;9.248;2023-04-06T03:48:57;16.70;;;14.83;;
7306;SDS011;3694;48.732;9.248;2023-04-06T03:51:23;16.67;;;14.73;;
7306;SDS011;3694;48.732;9.248;2023-04-06T03:53:48;15.30;;;13.70;;
7306;SDS011;3694;48.732;9.248;2023-04-06T03:56:14;16.00;;;14.33;;
7306;SDS011;3694;48.732;9.248;2023-04-06T03:58:40;15.93;;;14.10;;
7306;SDS011;3694;48.732;9.248;2023-04-06T04:01:05;20.07;;;14.60;;
7306;SDS011;3694;48.732;9.248;2023-04-06T04:03:31;15.93;;;14.33;;
7306;SDS011;3694;48.732;9.248;2023-04-06T04:05:57;17.70;;;14.40;;
7306;SDS011;3694;48.732;9.248;2023-04-06T04:08:23;18.70;;;15.13;;
7306;SDS011;3694;48.732;9.248;2023-04-06T04:10:49;17.03;;;15.20;;
7306;SDS011;3694;48.732;9.248;2023-04-06T04:13:14;17.30;;;14.83;;
7306;SDS011;3694;48.732;9.248;2023-04-06T04:15:40;20.03;;;15.67;;
7306;SDS011;3694;48.732;9.248;2023-04-06T04:18:06;18.00;;;16.00;;
7306;SDS011;3694;48.732;9.248;2023-04-06T04:20:32;18.13;;;15.90;;
7306;SDS011;3694;48.732;9.248;2023-04-06T04:22:57;19.27;;;15.87;;
7306;SDS011;3694;48.732;9.248;2023-04-06T04:25:23;19.37;;;15.83;;
7306;SDS011;3694;48.732;9.248;2023-04-06T04:27:48;18.97;;;16.30;;
7306;SDS011;3694;48.732;9.248;2023-04-06T04:30:14;19.73;;;16.87;;
7306;SDS011;3694;48.732;9.248;2023-04-06T04:32:40;18.60;;;16.60;;
7306;SDS011;3694;48.732;9.248;2023-04-06T04:35:06;18.57;;;16.10;;
7306;SDS011;3694;48.732;9.248;2023-04-06T04:37:32;20.03;;;16.37;;
7306;SDS011;3694;48.732;9.248;2023-04-06T04:39:59;18.17;;;16.27;;
7306;SDS011;3694;48.732;9.248;2023-04-06T04:42:25;21.13;;;16.90;;
7306;SDS011;3694;48.732;9.248;2023-04-06T04:44:51;17.80;;;15.90;;
7306;SDS011;3694;48.732;9.248;2023-04-06T04:47:16;19.63;;;16.63;;
7306;SDS011;3694;48.732;9.248;2023-04-06T04:49:42;17.10;;;15.40;;
7306;SDS011;3694;48.732;9.248;2023-04-06T04:52:07;18.93;;;15.57;;
7306;SDS011;3694;48.732;9.248;2023-04-06T04:54:33;17.70;;;15.47;;
7306;SDS011;3694;48.732;9.248;2023-04-06T04:56:58;18.70;;;15.83;;
7306;SDS011;3694;48.732;9.248;2023-04-06T04:59:24;18.27;;;15.43;;
7306;SDS011;3694;48.732;9.248;2023-04-06T05:01:50;20.27;;;15.57;;
7306;SDS011;3694;48.732;9.248;2023-04-06T05:04:15;19.80;;;15.53;;
7306;SDS011;3694;48.732;9.248;2023-04-06T05:06:40;20.97;;;16.77;;
7306;SDS011;3694;48.732;9.248;2023-04-06T05:09:06;18.30;;;15.50;;
7306;SDS011;3694;48.732;9.248;2023-04-06T05:11:31;18.13;;;15.77;;
7306;SDS011;3694;48.732;9.248;2023-04-06T05:13:57;17.87;;;15.93;;
7306;SDS011;3694;48.732;9.248;2023-04-06T05:16:24;19.67;;;15.53;;
7306;SDS011;3694;48.732;9.248;2023-04-06T05:18:50;17.33;;;15.37;;
7306;SDS011;3694;48.732;9.248;2023-04-06T05:21:15;17.83;;;15.80;;
7306;SDS011;3694;48.732;9.248;2023-04-06T05:23:41;16.63;;;14.73;;
7306;SDS011;3694;48.732;9.248;2023-04-06T05:26:06;17.07;;;14.97;;
7306;SDS011;3694;48.732;9.248;2023-04-06T05:28:32;18.40;;;15.87;;
7306;SDS011;3694;48.732;9.248;2023-04-06T05:30:58;18.97;;;15.00;;
7306;SDS011;3694;48.732;9.248;2023-04-06T05:33:23;16.43;;;14.73;;
7306;SDS011;3694;48.732;9.248;2023-04-06T05:35:50;19.13;;;14.90;;
7306;SDS011;3694;48.732;9.248;2023-04-06T05:38:15;15.77;;;13.83;;
7306;SDS011;3694;48.732;9.248;2023-04-06T05:40:41;16.50;;;14.80;;
7306;SDS011;3694;48.732;9.248;2023-04-06T05:43:06;18.30;;;14.60;;
7306;SDS011;3694;48.732;9.248;2023-04-06T05:45:32;16.23;;;14.53;;
7306;SDS011;3694;48.732;9.248;2023-04-06T05:47:58;16.50;;;14.40;;
7306;SDS011;3694;48.732;9.248;2023-04-06T05:50:23;19.17;;;14.27;;
7306;SDS011;3694;48.732;9.248;2023-04-06T05:52:49;18.50;;;14.87;;
7306;SDS011;3694;48.732;9.248;2023-04-06T05:55:15;15.97;;;13.77;;
7306;SDS011;3694;48.732;9.248;2023-04-06T05:57:40;20.53;;;14.20;;
7306;SDS011;3694;48.732;9.248;2023-04-06T06:00:06;17.47;;;13.60;;
7306;SDS011;3694;48.732;9.248;2023-04-06T06:02:34;15.20;;;13.50;;
7306;SDS011;3694;48.732;9.248;2023-04-06T06:05:00;14.43;;;12.90;;
7306;SDS011;3694;48.732;9.248;2023-04-06T06:07:26;14.60;;;12.87;;
7306;SDS011;3694;48.732;9.248;2023-04-06T06:09:51;13.77;;;11.80;;
7306;SDS011;3694;48.732;9.248;2023-04-06T06:12:17;14.23;;;12.13;;
7306;SDS011;3694;48.732;9.248;2023-04-06T06:14:42;14.60;;;11.20;;
7306;SDS011;3694;48.732;9.248;2023-04-06T06:17:08;13.83;;;10.47;;
7306;SDS011;3694;48.732;9.248;2023-04-06T06:19:34;14.70;;;10.43;;
7306;SDS011;3694;48.732;9.248;2023-04-06T06:21:59;11.87;;;9.03;;
7306;SDS011;3694;48.732;9.248;2023-04-06T06:24:27;11.60;;;9.63;;
7306;SDS011;3694;48.732;9.248;2023-04-06T06:26:53;12.70;;;9.70;;
7306;SDS011;3694;48.732;9.248;2023-04-06T06:29:18;11.30;;;9.50;;
7306;SDS011;3694;48.732;9.248;2023-04-06T06:31:44;17.17;;;9.20;;
7306;SDS011;3694;48.732;9.248;2023-04-06T06:34:10;9.77;;;8.57;;
7306;SDS011;3694;48.732;9.248;2023-04-06T06:36:35;9.93;;;7.93;;
7306;SDS011;3694;48.732;9.248;2023-04-06T06:39:01;9.57;;;8.17;;
7306;SDS011;3694;48.732;9.248;2023-04-06T06:41:28;12.20;;;8.90;;
7306;SDS011;3694;48.732;9.248;2023-04-06T06:43:54;9.97;;;8.97;;
7306;SDS011;3694;48.732;9.248;2023-04-06T06:46:20;9.93;;;8.93;;
7306;SDS011;3694;48.732;9.248;2023-04-06T06:48:45;11.13;;;9.43;;
7306;SDS011;3694;48.732;9.248;2023-04-06T06:51:11;11.53;;;8.57;;
7306;SDS011;3694;48.732;9.248;2023-04-06T06:53:37;10.07;;;8.80;;
7306;SDS011;3694;48.732;9.248;2023-04-06T06:56:02;9.00;;;8.10;;
7306;SDS011;3694;48.732;9.248;2023-04-06T06:58:28;9.00;;;7.60;;
7306;SDS011;3694;48.732;9.248;2023-04-06T07:00:57;9.70;;;8.53;;
7306;SDS011;3694;48.732;9.248;2023-04-06T07:03:23;9.17;;;8.27;;
7306;SDS011;3694;48.732;9.248;2023-04-06T07:05:49;9.50;;;7.63;;
7306;SDS011;3694;48.732;9.248;2023-04-06T07:08:21;8.73;;;7.87;;
7306;SDS011;3694;48.732;9.248;2023-04-06T07:10:50;8.50;;;7.70;;
7306;SDS011;3694;48.732;9.248;2023-04-06T07:13:22;11.00;;;7.83;;
7306;SDS011;3694;48.732;9.248;2023-04-06T07:15:49;10.30;;;8.17;;
7306;SDS011;3694;48.732;9.248;2023-04-06T07:18:15;8.73;;;7.77;;
7306;SDS011;3694;48.732;9.248;2023-04-06T07:20:41;9.73;;;7.83;;
7306;SDS011;3694;48.732;9.248;2023-04-06T07:23:06;9.20;;;8.30;;
7306;SDS011;3694;48.732;9.248;2023-04-06T07:25:32;8.20;;;7.50;;
7306;SDS011;3694;48.732;9.248;2023-04-06T07:27:58;11.63;;;8.63;;
7306;SDS011;3694;48.732;9.248;2023-04-06T07:30:23;8.20;;;7.43;;
7306;SDS011;3694;48.732;9.248;2023-04-06T07:32:51;8.57;;;7.60;;
7306;SDS011;3694;48.732;9.248;2023-04-06T07:35:16;9.37;;;7.80;;
7306;SDS011;3694;48.732;9.248;2023-04-06T07:37:42;8.57;;;7.67;;
7306;SDS011;3694;48.732;9.248;2023-04-06T07:40:08;9.80;;;8.53;;
7306;SDS011;3694;48.732;9.248;2023-04-06T07:42:34;8.07;;;7.13;;
7306;SDS011;3694;48.732;9.248;2023-04-06T07:44:59;10.10;;;8.00;;
7306;SDS011;3694;48.732;9.248;2023-04-06T07:47:25;9.40;;;8.47;;
7306;SDS011;3694;48.732;9.248;2023-04-06T07:49:51;11.17;;;8.20;;
7306;SDS011;3694;48.732;9.248;2023-04-06T07:52:16;8.80;;;7.90;;
7306;SDS011;3694;48.732;9.248;2023-04-06T07:54:42;9.83;;;8.27;;
7306;SDS011;3694;48.732;9.248;2023-04-06T07:57:07;9.50;;;8.50;;
7306;SDS011;3694;48.732;9.248;2023-04-06T07:59:33;8.97;;;8.07;;
7306;SDS011;3694;48.732;9.248;2023-04-06T08:01:58;9.43;;;8.40;;
7306;SDS011;3694;48.732;9.248;2023-04-06T08:04:24;9.47;;;8.33;;
7306;SDS011;3694;48.732;9.248;2023-04-06T08:06:49;12.27;;;8.67;;
7306;SDS011;3694;48.732;9.248;2023-04-06T08:09:15;9.90;;;8.30;;
7306;SDS011;3694;48.732;9.248;2023-04-06T08:11:40;11.13;;;8.40;;
7306;SDS011;3694;48.732;9.248;2023-04-06T08:14:06;9.93;;;8.13;;
7306;SDS011;3694;48.732;9.248;2023-04-06T08:16:31;9.57;;;8.57;;
7306;SDS011;3694;48.732;9.248;2023-04-06T08:18:57;9.50;;;8.53;;
7306;SDS011;3694;48.732;9.248;2023-04-06T08:21:22;9.70;;;8.03;;
7306;SDS011;3694;48.732;9.248;2023-04-06T08:23:48;9.23;;;8.37;;
7306;SDS011;3694;48.732;9.248;2023-04-06T08:26:13;10.47;;;8.27;;
7306;SDS011;3694;48.732;9.248;2023-04-06T08:28:39;9.67;;;8.20;;
7306;SDS011;3694;48.732;9.248;2023-04-06T08:31:05;9.53;;;8.20;;
7306;SDS011;3694;48.732;9.248;2023-04-06T08:33:31;9.23;;;8.30;;
7306;SDS011;3694;48.732;9.248;2023-04-06T08:35:56;9.53;;;8.30;;
7306;SDS011;3694;48.732;9.248;2023-04-06T08:38:22;10.20;;;8.77;;
7306;SDS011;3694;48.732;9.248;2023-04-06T08:40:48;9.17;;;8.23;;
7306;SDS011;3694;48.732;9.248;2023-04-06T08:43:15;10.30;;;8.20;;
7306;SDS011;3694;48.732;9.248;2023-04-06T08:45:44;10.30;;;7.93;;
7306;SDS011;3694;48.732;9.248;2023-04-06T08:48:09;10.60;;;8.23;;
7306;SDS011;3694;48.732;9.248;2023-04-06T08:50:38;9.33;;;8.30;;
7306;SDS011;3694;48.732;9.248;2023-04-06T08:53:04;9.03;;;8.00;;
7306;SDS011;3694;48.732;9.248;2023-04-06T08:55:31;9.63;;;8.53;;
7306;SDS011;3694;48.732;9.248;2023-04-06T08:57:57;9.03;;;8.13;;
7306;SDS011;3694;48.732;9.248;2023-04-06T09:00:24;9.03;;;8.00;;
7306;SDS011;3694;48.732;9.248;2023-04-06T09:02:51;10.47;;;7.93;;
7306;SDS011;3694;48.732;9.248;2023-04-06T09:05:20;9.50;;;8.33;;
7306;SDS011;3694;48.732;9.248;2023-04-06T09:07:46;9.10;;;8.20;;
7306;SDS011;3694;48.732;9.248;2023-04-06T09:10:12;9.57;;;8.53;;
7306;SDS011;3694;48.732;9.248;2023-04-06T09:12:38;11.30;;;8.50;;
7306;SDS011;3694;48.732;9.248;2023-04-06T09:15:03;12.40;;;9.37;;
7306;SDS011;3694;48.732;9.248;2023-04-06T09:17:30;8.80;;;8.00;;
7306;SDS011;3694;48.732;9.248;2023-04-06T09:19:59;9.73;;;8.83;;
7306;SDS011;3694;48.732;9.248;2023-04-06T09:22:25;9.53;;;8.37;;
7306;SDS011;3694;48.732;9.248;2023-04-06T09:24:59;9.20;;;8.30;;
7306;SDS011;3694;48.732;9.248;2023-04-06T09:27:32;10.07;;;9.03;;
7306;SDS011;3694;48.732;9.248;2023-04-06T09:30:06;9.67;;;8.53;;
7306;SDS011;3694;48.732;9.248;2023-04-06T09:32:43;10.17;;;9.17;;
7306;SDS011;3694;48.732;9.248;2023-04-06T09:35:11;14.10;;;11.60;;
7306;SDS011;3694;48.732;9.248;2023-04-06T09:37:36;11.83;;;8.77;;
7306;SDS011;3694;48.732;9.248;2023-04-06T09:40:05;14.93;;;12.00;;
7306;SDS011;3694;48.732;9.248;2023-04-06T09:42:32;25.97;;;13.80;;
7306;SDS011;3694;48.732;9.248;2023-04-06T09:44:57;15.03;;;9.97;;
7306;SDS011;3694;48.732;9.248;2023-04-06T09:47:23;9.03;;;8.10;;
7306;SDS011;3694;48.732;9.248;2023-04-06T09:49:50;9.40;;;8.47;;
7306;SDS011;3694;48.732;9.248;2023-04-06T09:52:21;9.20;;;8.17;;
7306;SDS011;3694;48.732;9.248;2023-04-06T09:54:49;8.77;;;7.87;;
7306;SDS011;3694;48.732;9.248;2023-04-06T10:02:18;8.47;;;7.67;;
7306;SDS011;3694;48.732;9.248;2023-04-06T10:05:41;8.83;;;7.40;;
7306;SDS011;3694;48.732;9.248;2023-04-06T10:07:41;8.13;;;7.10;;
7306;SDS011;3694;48.732;9.248;2023-04-06T10:10:07;8.33;;;7.53;;
7306;SDS011;3694;48.732;9.248;2023-04-06T10:12:34;8.03;;;7.20;;
7306;SDS011;3694;48.732;9.248;2023-04-06T10:15:05;6.57;;;5.87;;
7306;SDS011;3694;48.732;9.248;2023-04-06T10:17:31;7.97;;;7.17;;
7306;SDS011;3694;48.732;9.248;2023-04-06T10:20:02;6.77;;;6.17;;
7306;SDS011;3694;48.732;9.248;2023-04-06T10:22:41;7.73;;;7.03;;
7306;SDS011;3694;48.732;9.248;2023-04-06T10:25:28;8.10;;;7.30;;
7306;SDS011;3694;48.732;9.248;2023-04-06T10:28:06;7.13;;;5.90;;
7306;SDS011;3694;48.732;9.248;2023-04-06T10:30:34;6.27;;;5.67;;
7306;SDS011;3694;48.732;9.248;2023-04-06T10:33:13;6.70;;;5.50;;
7306;SDS011;3694;48.732;9.248;2023-04-06T10:35:39;7.07;;;6.30;;
7306;SDS011;3694;48.732;9.248;2023-04-06T10:38:05;7.00;;;6.30;;
7306;SDS011;3694;48.732;9.248;2023-04-06T10:40:32;6.50;;;5.90;;
7306;SDS011;3694;48.732;9.248;2023-04-06T10:43:11;7.37;;;5.70;;
7306;SDS011;3694;48.732;9.248;2023-04-06T10:45:39;6.40;;;5.80;;
7306;SDS011;3694;48.732;9.248;2023-04-06T10:48:15;6.13;;;5.57;;
7306;SDS011;3694;48.732;9.248;2023-04-06T10:50:46;6.57;;;5.37;;
7306;SDS011;3694;48.732;9.248;2023-04-06T10:53:20;6.23;;;4.97;;
7306;SDS011;3694;48.732;9.248;2023-04-06T10:55:46;6.27;;;5.67;;
7306;SDS011;3694;48.732;9.248;2023-04-06T10:58:14;6.40;;;5.80;;
7306;SDS011;3694;48.732;9.248;2023-04-06T11:00:46;7.63;;;5.90;;
7306;SDS011;3694;48.732;9.248;2023-04-06T11:03:12;6.13;;;5.53;;
7306;SDS011;3694;48.732;9.248;2023-04-06T11:05:39;6.63;;;6.03;;
7306;SDS011;3694;48.732;9.248;2023-04-06T11:08:09;6.30;;;5.70;;
7306;SDS011;3694;48.732;9.248;2023-04-06T11:10:35;5.80;;;5.30;;
7306;SDS011;3694;48.732;9.248;2023-04-06T11:13:00;6.20;;;5.60;;
7306;SDS011;3694;48.732;9.248;2023-04-06T11:15:26;5.77;;;5.23;;
7306;SDS011;3694;48.732;9.248;2023-04-06T11:17:51;5.93;;;5.37;;
7306;SDS011;3694;48.732;9.248;2023-04-06T11:20:17;6.90;;;5.17;;
7306;SDS011;3694;48.732;9.248;2023-04-06T11:22:48;5.60;;;5.03;;
7306;SDS011;3694;48.732;9.248;2023-04-06T11:25:14;6.77;;;5.60;;
7306;SDS011;3694;48.732;9.248;2023-04-06T11:27:41;14.20;;;11.23;;
7306;SDS011;3694;48.732;9.248;2023-04-06T11:30:08;7.07;;;6.37;;
7306;SDS011;3694;48.732;9.248;2023-04-06T11:32:40;5.20;;;4.40;;
7306;SDS011;3694;48.732;9.248;2023-04-06T11:35:07;4.90;;;4.50;;
7306;SDS011;3694;48.732;9.248;2023-04-06T11:37:37;4.47;;;4.07;;
7306;SDS011;3694;48.732;9.248;2023-04-06T11:40:03;4.80;;;4.40;;
7306;SDS011;3694;48.732;9.248;2023-04-06T11:42:34;5.67;;;4.87;;
7306;SDS011;3694;48.732;9.248;2023-04-06T11:44:59;5.27;;;4.13;;
7306;SDS011;3694;48.732;9.248;2023-04-06T11:47:35;4.60;;;4.17;;
7306;SDS011;3694;48.732;9.248;2023-04-06T11:50:05;4.10;;;3.70;;
7306;SDS011;3694;48.732;9.248;2023-04-06T11:52:33;4.97;;;4.47;;
7306;SDS011;3694;48.732;9.248;2023-04-06T11:54:58;4.40;;;4.00;;
7306;SDS011;3694;48.732;9.248;2023-04-06T11:57:36;4.77;;;4.10;;
7306;SDS011;3694;48.732;9.248;2023-04-06T12:00:01;6.43;;;5.13;;
7306;SDS011;3694;48.732;9.248;2023-04-06T12:02:27;4.43;;;4.03;;
7306;SDS011;3694;48.732;9.248;2023-04-06T12:04:53;5.83;;;5.10;;
7306;SDS011;3694;48.732;9.248;2023-04-06T12:07:18;6.63;;;5.10;;
7306;SDS011;3694;48.732;9.248;2023-04-06T12:09:44;6.10;;;5.50;;
7306;SDS011;3694;48.732;9.248;2023-04-06T12:12:09;5.80;;;5.13;;
7306;SDS011;3694;48.732;9.248;2023-04-06T12:14:35;5.87;;;5.20;;
7306;SDS011;3694;48.732;9.248;2023-04-06T12:17:00;6.17;;;5.27;;
7306;SDS011;3694;48.732;9.248;2023-04-06T12:19:26;6.10;;;5.40;;
7306;SDS011;3694;48.732;9.248;2023-04-06T12:21:52;5.73;;;5.13;;
7306;SDS011;3694;48.732;9.248;2023-04-06T12:24:19;5.40;;;4.90;;
7306;SDS011;3694;48.732;9.248;2023-04-06T12:26:44;5.53;;;5.03;;
7306;SDS011;3694;48.732;9.248;2023-04-06T12:29:10;5.20;;;4.70;;
7306;SDS011;3694;48.732;9.248;2023-04-06T12:31:38;6.17;;;5.10;;
7306;SDS011;3694;48.732;9.248;2023-04-06T12:34:05;5.70;;;5.20;;
7306;SDS011;3694;48.732;9.248;2023-04-06T12:36:30;5.97;;;5.37;;
7306;SDS011;3694;48.732;9.248;2023-04-06T12:38:56;6.17;;;5.43;;
7306;SDS011;3694;48.732;9.248;2023-04-06T12:41:22;6.17;;;5.50;;
7306;SDS011;3694;48.732;9.248;2023-04-06T12:43:48;5.90;;;5.40;;
7306;SDS011;3694;48.732;9.248;2023-04-06T12:46:15;5.03;;;4.53;;
7306;SDS011;3694;48.732;9.248;2023-04-06T12:48:41;5.30;;;4.80;;
7306;SDS011;3694;48.732;9.248;2023-04-06T12:51:06;5.10;;;4.53;;
7306;SDS011;3694;48.732;9.248;2023-04-06T12:53:32;5.60;;;5.07;;
7306;SDS011;3694;48.732;9.248;2023-04-06T12:55:59;5.43;;;4.90;;
7306;SDS011;3694;48.732;9.248;2023-04-06T12:58:25;5.70;;;5.10;;
7306;SDS011;3694;48.732;9.248;2023-04-06T13:00:51;5.67;;;5.07;;
7306;SDS011;3694;48.732;9.248;2023-04-06T13:03:17;7.37;;;5.40;;
7306;SDS011;3694;48.732;9.248;2023-04-06T13:05:44;5.73;;;5.20;;
7306;SDS011;3694;48.732;9.248;2023-04-06T13:08:10;6.00;;;5.23;;
7306;SDS011;3694;48.732;9.248;2023-04-06T13:10:36;5.53;;;5.03;;
7306;SDS011;3694;48.732;9.248;2023-04-06T13:13:02;5.43;;;4.93;;
7306;SDS011;3694;48.732;9.248;2023-04-06T13:15:28;5.23;;;4.73;;
7306;SDS011;3694;48.732;9.248;2023-04-06T13:17:53;6.37;;;4.83;;
7306;SDS011;3694;48.732;9.248;2023-04-06T13:20:19;5.83;;;5.23;;
7306;SDS011;3694;48.732;9.248;2023-04-06T13:22:45;6.70;;;5.53;;
7306;SDS011;3694;48.732;9.248;2023-04-06T13:25:10;5.57;;;5.07;;
7306;SDS011;3694;48.732;9.248;2023-04-06T13:27:35;5.20;;;4.70;;
7306;SDS011;3694;48.732;9.248;2023-04-06T13:30:02;5.77;;;5.13;;
7306;SDS011;3694;48.732;9.248;2023-04-06T13:32:28;5.43;;;4.93;;
7306;SDS011;3694;48.732;9.248;2023-04-06T13:34:55;6.80;;;6.17;;
7306;SDS011;3694;48.732;9.248;2023-04-06T13:37:20;5.70;;;5.17;;
7306;SDS011;3694;48.732;9.248;2023-04-06T13:39:46;7.13;;;5.50;;
7306;SDS011;3694;48.732;9.248;2023-04-06T13:42:11;6.00;;;5.07;;
7306;SDS011;3694;48.732;9.248;2023-04-06T13:44:37;6.37;;;5.17;;
7306;SDS011;3694;48.732;9.248;2023-04-06T13:47:02;5.93;;;5.30;;
7306;SDS011;3694;48.732;9.248;2023-04-06T13:49:28;6.37;;;5.17;;
7306;SDS011;3694;48.732;9.248;2023-04-06T13:51:53;6.17;;;5.27;;
7306;SDS011;3694;48.732;9.248;2023-04-06T13:54:19;5.30;;;4.80;;
7306;SDS011;3694;48.732;9.248;2023-04-06T13:56:44;5.80;;;5.30;;
7306;SDS011;3694;48.732;9.248;2023-04-06T13:59:10;5.20;;;4.70;;
7306;SDS011;3694;48.732;9.248;2023-04-06T14:01:36;5.67;;;5.17;;
7306;SDS011;3694;48.732;9.248;2023-04-06T14:04:02;6.83;;;5.43;;
7306;SDS011;3694;48.732;9.248;2023-04-06T14:06:27;5.37;;;4.80;;
7306;SDS011;3694;48.732;9.248;2023-04-06T14:08:53;6.10;;;5.50;;
7306;SDS011;3694;48.732;9.248;2023-04-06T14:11:18;5.77;;;5.27;;
7306;SDS011;3694;48.732;9.248;2023-04-06T14:13:44;5.80;;;4.93;;
7306;SDS011;3694;48.732;9.248;2023-04-06T14:16:10;5.47;;;4.93;;
7306;SDS011;3694;48.732;9.248;2023-04-06T14:18:36;6.40;;;5.43;;
7306;SDS011;3694;48.732;9.248;2023-04-06T14:21:01;6.93;;;4.80;;
7306;SDS011;3694;48.732;9.248;2023-04-06T14:23:27;6.63;;;5.23;;
7306;SDS011;3694;48.732;9.248;2023-04-06T14:26:03;5.10;;;4.60;;
7306;SDS011;3694;48.732;9.248;2023-04-06T14:28:30;6.03;;;5.03;;
7306;SDS011;3694;48.732;9.248;2023-04-06T14:30:57;5.03;;;4.53;;
7306;SDS011;3694;48.732;9.248;2023-04-06T14:33:25;6.40;;;5.07;;
7306;SDS011;3694;48.732;9.248;2023-04-06T14:35:51;5.70;;;5.10;;
7306;SDS011;3694;48.732;9.248;2023-04-06T14:38:16;5.40;;;4.90;;
7306;SDS011;3694;48.732;9.248;2023-04-06T14:40:42;5.70;;;5.10;;
7306;SDS011;3694;48.732;9.248;2023-04-06T14:43:07;5.53;;;4.97;;
7306;SDS011;3694;48.732;9.248;2023-04-06T14:45:33;5.50;;;5.00;;
7306;SDS011;3694;48.732;9.248;2023-04-06T14:48:04;6.10;;;4.90;;
7306;SDS011;3694;48.732;9.248;2023-04-06T14:50:31;5.00;;;4.60;;
7306;SDS011;3694;48.732;9.248;2023-04-06T14:52:57;5.57;;;5.07;;
7306;SDS011;3694;48.732;9.248;2023-04-06T14:55:22;5.33;;;4.83;;
7306;SDS011;3694;48.732;9.248;2023-04-06T14:57:48;5.80;;;5.03;;
7306;SDS011;3694;48.732;9.248;2023-04-06T15:00:14;6.10;;;5.10;;
7306;SDS011;3694;48.732;9.248;2023-04-06T15:02:40;6.23;;;4.67;;